sensor_id;sensor_type;location;lat;lon;timestamp;P1;durP1;ratioP1;P2;durP2;ratioP2
58768;SDS011;44536;47.474;19.056;2023-05-14T00:02:07;9.50;;;6.63;;
58768;SDS011;44536;47.474;19.056;2023-05-14T00:05:11;11.80;;;7.78;;
58768;SDS011;44536;47.474;19.056;2023-05-14T00:08:13;10.07;;;6.90;;
58768;SDS011;44536;47.474;19.056;2023-05-14T00:11:16;9.70;;;7.23;;
58768;SDS011;44536;47.474;19.056;2023-05-14T00:14:18;14.25;;;8.18;;
58768;SDS011;44536;47.474;19.056;2023-05-14T00:17:21;9.70;;;6.40;;
58768;SDS011;44536;47.474;19.056;2023-05-14T00:20:24;9.85;;;6.78;;
58768;SDS011;44536;47.474;19.056;2023-05-14T00:23:27;10.55;;;7.78;;
58768;SDS011;44536;47.474;19.056;2023-05-14T00:26:29;12.27;;;7.75;;
58768;SDS011;44536;47.474;19.056;2023-05-14T00:29:32;12.73;;;7.35;;
58768;SDS011;44536;47.474;19.056;2023-05-14T00:32:34;10.10;;;7.55;;
58768;SDS011;44536;47.474;19.056;2023-05-14T00:35:37;13.15;;;7.87;;
58768;SDS011;44536;47.474;19.056;2023-05-14T00:38:40;9.57;;;7.05;;
58768;SDS011;44536;47.474;19.056;2023-05-14T00:41:42;10.65;;;7.40;;
58768;SDS011;44536;47.474;19.056;2023-05-14T00:44:44;11.65;;;7.57;;
58768;SDS011;44536;47.474;19.056;2023-05-14T00:47:47;9.98;;;6.75;;
58768;SDS011;44536;47.474;19.056;2023-05-14T00:50:50;10.38;;;7.00;;
58768;SDS011;44536;47.474;19.056;2023-05-14T00:53:53;10.48;;;6.62;;
58768;SDS011;44536;47.474;19.056;2023-05-14T00:56:56;10.00;;;6.30;;
58768;SDS011;44536;47.474;19.056;2023-05-14T00:59:59;12.88;;;7.12;;
58768;SDS011;44536;47.474;19.056;2023-05-14T01:03:02;9.17;;;6.63;;
58768;SDS011;44536;47.474;19.056;2023-05-14T01:13:18;11.73;;;7.70;;
58768;SDS011;44536;47.474;19.056;2023-05-14T01:16:33;10.07;;;6.35;;
58768;SDS011;44536;47.474;19.056;2023-05-14T01:19:40;9.57;;;6.90;;
58768;SDS011;44536;47.474;19.056;2023-05-14T01:22:43;9.45;;;6.55;;
58768;SDS011;44536;47.474;19.056;2023-05-14T01:25:46;10.38;;;6.80;;
58768;SDS011;44536;47.474;19.056;2023-05-14T01:28:49;10.85;;;6.40;;
58768;SDS011;44536;47.474;19.056;2023-05-14T01:31:54;10.05;;;7.18;;
58768;SDS011;44536;47.474;19.056;2023-05-14T01:34:58;11.18;;;6.50;;
58768;SDS011;44536;47.474;19.056;2023-05-14T01:38:04;10.88;;;6.28;;
58768;SDS011;44536;47.474;19.056;2023-05-14T01:41:08;10.38;;;6.70;;
58768;SDS011;44536;47.474;19.056;2023-05-14T01:44:11;19.40;;;10.35;;
58768;SDS011;44536;47.474;19.056;2023-05-14T01:47:14;10.02;;;6.80;;
58768;SDS011;44536;47.474;19.056;2023-05-14T01:50:17;11.48;;;7.68;;
58768;SDS011;44536;47.474;19.056;2023-05-14T01:53:19;12.48;;;8.40;;
58768;SDS011;44536;47.474;19.056;2023-05-14T01:56:22;13.48;;;8.00;;
58768;SDS011;44536;47.474;19.056;2023-05-14T01:59:25;12.02;;;7.25;;
58768;SDS011;44536;47.474;19.056;2023-05-14T02:02:27;11.33;;;7.43;;
58768;SDS011;44536;47.474;19.056;2023-05-14T02:05:30;10.73;;;7.32;;
58768;SDS011;44536;47.474;19.056;2023-05-14T02:08:32;10.95;;;8.07;;
58768;SDS011;44536;47.474;19.056;2023-05-14T02:11:35;13.80;;;8.77;;
58768;SDS011;44536;47.474;19.056;2023-05-14T02:14:37;10.75;;;6.78;;
58768;SDS011;44536;47.474;19.056;2023-05-14T02:17:40;13.38;;;6.97;;
58768;SDS011;44536;47.474;19.056;2023-05-14T02:20:45;10.35;;;7.82;;
58768;SDS011;44536;47.474;19.056;2023-05-14T02:23:48;12.67;;;7.10;;
58768;SDS011;44536;47.474;19.056;2023-05-14T02:26:51;11.52;;;8.13;;
58768;SDS011;44536;47.474;19.056;2023-05-14T02:29:53;12.30;;;7.40;;
58768;SDS011;44536;47.474;19.056;2023-05-14T02:32:57;12.00;;;6.90;;
58768;SDS011;44536;47.474;19.056;2023-05-14T02:36:00;12.70;;;7.70;;
58768;SDS011;44536;47.474;19.056;2023-05-14T02:39:03;11.47;;;7.30;;
58768;SDS011;44536;47.474;19.056;2023-05-14T02:42:06;11.67;;;6.93;;
58768;SDS011;44536;47.474;19.056;2023-05-14T02:45:09;10.82;;;7.12;;
58768;SDS011;44536;47.474;19.056;2023-05-14T02:48:11;10.50;;;7.57;;
58768;SDS011;44536;47.474;19.056;2023-05-14T02:51:14;10.95;;;7.00;;
58768;SDS011;44536;47.474;19.056;2023-05-14T02:54:17;11.57;;;6.68;;
58768;SDS011;44536;47.474;19.056;2023-05-14T02:57:20;9.82;;;6.57;;
58768;SDS011;44536;47.474;19.056;2023-05-14T03:00:22;10.43;;;6.57;;
58768;SDS011;44536;47.474;19.056;2023-05-14T03:06:30;12.45;;;7.30;;
58768;SDS011;44536;47.474;19.056;2023-05-14T03:09:33;10.00;;;6.00;;
58768;SDS011;44536;47.474;19.056;2023-05-14T03:12:39;9.10;;;5.45;;
58768;SDS011;44536;47.474;19.056;2023-05-14T03:15:42;13.10;;;6.70;;
58768;SDS011;44536;47.474;19.056;2023-05-14T03:18:45;9.40;;;6.30;;
58768;SDS011;44536;47.474;19.056;2023-05-14T03:21:48;10.02;;;5.87;;
58768;SDS011;44536;47.474;19.056;2023-05-14T03:24:50;8.95;;;5.60;;
58768;SDS011;44536;47.474;19.056;2023-05-14T03:27:53;9.05;;;6.15;;
58768;SDS011;44536;47.474;19.056;2023-05-14T03:30:56;9.57;;;6.32;;
58768;SDS011;44536;47.474;19.056;2023-05-14T03:33:59;11.30;;;6.62;;
58768;SDS011;44536;47.474;19.056;2023-05-14T03:37:01;12.40;;;6.30;;
58768;SDS011;44536;47.474;19.056;2023-05-14T03:40:04;8.80;;;6.37;;
58768;SDS011;44536;47.474;19.056;2023-05-14T03:43:10;8.95;;;5.90;;
58768;SDS011;44536;47.474;19.056;2023-05-14T03:46:13;9.55;;;6.10;;
58768;SDS011;44536;47.474;19.056;2023-05-14T03:49:15;8.93;;;5.72;;
58768;SDS011;44536;47.474;19.056;2023-05-14T03:52:18;8.10;;;5.77;;
58768;SDS011;44536;47.474;19.056;2023-05-14T03:55:20;10.05;;;5.85;;
58768;SDS011;44536;47.474;19.056;2023-05-14T03:58:24;8.35;;;6.12;;
58768;SDS011;44536;47.474;19.056;2023-05-14T04:01:27;9.60;;;6.68;;
58768;SDS011;44536;47.474;19.056;2023-05-14T04:04:31;8.75;;;5.45;;
58768;SDS011;44536;47.474;19.056;2023-05-14T04:07:35;9.77;;;6.22;;
58768;SDS011;44536;47.474;19.056;2023-05-14T04:10:37;8.88;;;5.93;;
58768;SDS011;44536;47.474;19.056;2023-05-14T04:13:40;9.38;;;5.03;;
58768;SDS011;44536;47.474;19.056;2023-05-14T04:16:44;9.80;;;5.65;;
58768;SDS011;44536;47.474;19.056;2023-05-14T04:19:46;9.40;;;5.32;;
58768;SDS011;44536;47.474;19.056;2023-05-14T04:22:49;8.75;;;5.70;;
58768;SDS011;44536;47.474;19.056;2023-05-14T04:25:51;10.07;;;6.03;;
58768;SDS011;44536;47.474;19.056;2023-05-14T04:28:54;12.05;;;6.35;;
58768;SDS011;44536;47.474;19.056;2023-05-14T04:31:56;8.38;;;5.90;;
58768;SDS011;44536;47.474;19.056;2023-05-14T04:34:59;9.95;;;6.50;;
58768;SDS011;44536;47.474;19.056;2023-05-14T04:38:02;11.88;;;5.22;;
58768;SDS011;44536;47.474;19.056;2023-05-14T04:41:04;7.97;;;5.12;;
58768;SDS011;44536;47.474;19.056;2023-05-14T04:44:07;9.45;;;5.15;;
58768;SDS011;44536;47.474;19.056;2023-05-14T04:47:10;10.52;;;5.40;;
58768;SDS011;44536;47.474;19.056;2023-05-14T04:50:12;7.55;;;4.72;;
58768;SDS011;44536;47.474;19.056;2023-05-14T04:53:15;7.60;;;5.30;;
58768;SDS011;44536;47.474;19.056;2023-05-14T04:56:18;8.55;;;5.55;;
58768;SDS011;44536;47.474;19.056;2023-05-14T04:59:20;10.18;;;5.50;;
58768;SDS011;44536;47.474;19.056;2023-05-14T05:02:23;8.20;;;5.15;;
58768;SDS011;44536;47.474;19.056;2023-05-14T05:05:26;9.10;;;5.95;;
58768;SDS011;44536;47.474;19.056;2023-05-14T05:08:29;8.88;;;5.18;;
58768;SDS011;44536;47.474;19.056;2023-05-14T05:11:31;9.27;;;6.40;;
58768;SDS011;44536;47.474;19.056;2023-05-14T05:14:34;9.10;;;5.70;;
58768;SDS011;44536;47.474;19.056;2023-05-14T05:17:37;8.93;;;5.53;;
58768;SDS011;44536;47.474;19.056;2023-05-14T05:20:39;8.43;;;5.20;;
58768;SDS011;44536;47.474;19.056;2023-05-14T05:23:42;10.47;;;6.13;;
58768;SDS011;44536;47.474;19.056;2023-05-14T05:26:45;9.65;;;6.55;;
58768;SDS011;44536;47.474;19.056;2023-05-14T05:29:48;9.75;;;5.62;;
58768;SDS011;44536;47.474;19.056;2023-05-14T05:32:50;11.10;;;6.28;;
58768;SDS011;44536;47.474;19.056;2023-05-14T05:35:53;10.17;;;6.03;;
58768;SDS011;44536;47.474;19.056;2023-05-14T05:38:55;9.32;;;6.47;;
58768;SDS011;44536;47.474;19.056;2023-05-14T05:41:58;9.93;;;5.32;;
58768;SDS011;44536;47.474;19.056;2023-05-14T05:45:00;10.40;;;7.12;;
58768;SDS011;44536;47.474;19.056;2023-05-14T05:48:03;9.70;;;6.25;;
58768;SDS011;44536;47.474;19.056;2023-05-14T05:51:06;11.00;;;6.07;;
58768;SDS011;44536;47.474;19.056;2023-05-14T05:54:09;8.70;;;5.50;;
58768;SDS011;44536;47.474;19.056;2023-05-14T05:57:11;9.88;;;6.18;;
58768;SDS011;44536;47.474;19.056;2023-05-14T06:00:14;9.68;;;6.43;;
58768;SDS011;44536;47.474;19.056;2023-05-14T06:03:18;9.35;;;5.78;;
58768;SDS011;44536;47.474;19.056;2023-05-14T06:06:20;9.48;;;6.15;;
58768;SDS011;44536;47.474;19.056;2023-05-14T06:09:23;8.60;;;5.87;;
58768;SDS011;44536;47.474;19.056;2023-05-14T06:12:26;9.98;;;5.62;;
58768;SDS011;44536;47.474;19.056;2023-05-14T06:15:28;9.68;;;6.68;;
58768;SDS011;44536;47.474;19.056;2023-05-14T06:18:31;14.77;;;6.53;;
58768;SDS011;44536;47.474;19.056;2023-05-14T06:21:33;12.48;;;6.70;;
58768;SDS011;44536;47.474;19.056;2023-05-14T06:24:36;12.10;;;6.60;;
58768;SDS011;44536;47.474;19.056;2023-05-14T06:27:38;10.23;;;6.97;;
58768;SDS011;44536;47.474;19.056;2023-05-14T06:30:41;9.85;;;6.80;;
58768;SDS011;44536;47.474;19.056;2023-05-14T06:33:43;11.43;;;6.50;;
58768;SDS011;44536;47.474;19.056;2023-05-14T06:36:46;10.32;;;6.65;;
58768;SDS011;44536;47.474;19.056;2023-05-14T06:39:48;10.05;;;6.97;;
58768;SDS011;44536;47.474;19.056;2023-05-14T06:42:51;10.32;;;7.50;;
58768;SDS011;44536;47.474;19.056;2023-05-14T06:45:53;11.73;;;7.20;;
58768;SDS011;44536;47.474;19.056;2023-05-14T06:48:56;10.32;;;6.65;;
58768;SDS011;44536;47.474;19.056;2023-05-14T06:52:01;10.30;;;6.25;;
58768;SDS011;44536;47.474;19.056;2023-05-14T06:55:03;11.80;;;7.10;;
58768;SDS011;44536;47.474;19.056;2023-05-14T06:58:06;10.20;;;6.93;;
58768;SDS011;44536;47.474;19.056;2023-05-14T07:01:09;11.52;;;7.43;;
58768;SDS011;44536;47.474;19.056;2023-05-14T07:04:12;12.85;;;7.18;;
58768;SDS011;44536;47.474;19.056;2023-05-14T07:07:14;10.70;;;8.07;;
58768;SDS011;44536;47.474;19.056;2023-05-14T07:10:21;9.75;;;6.55;;
58768;SDS011;44536;47.474;19.056;2023-05-14T07:13:24;13.73;;;7.30;;
58768;SDS011;44536;47.474;19.056;2023-05-14T07:16:30;11.57;;;6.25;;
58768;SDS011;44536;47.474;19.056;2023-05-14T07:19:33;11.65;;;6.60;;
58768;SDS011;44536;47.474;19.056;2023-05-14T07:22:35;10.07;;;6.32;;
58768;SDS011;44536;47.474;19.056;2023-05-14T07:25:38;10.45;;;6.12;;
58768;SDS011;44536;47.474;19.056;2023-05-14T07:28:41;11.75;;;7.47;;
58768;SDS011;44536;47.474;19.056;2023-05-14T07:31:44;11.38;;;6.35;;
58768;SDS011;44536;47.474;19.056;2023-05-14T07:34:46;10.75;;;6.80;;
58768;SDS011;44536;47.474;19.056;2023-05-14T07:40:52;9.95;;;6.70;;
58768;SDS011;44536;47.474;19.056;2023-05-14T07:43:55;13.00;;;7.37;;
58768;SDS011;44536;47.474;19.056;2023-05-14T07:46:57;9.40;;;7.07;;
58768;SDS011;44536;47.474;19.056;2023-05-14T07:50:01;9.68;;;6.87;;
58768;SDS011;44536;47.474;19.056;2023-05-14T07:53:03;9.35;;;6.28;;
58768;SDS011;44536;47.474;19.056;2023-05-14T07:56:06;10.43;;;6.77;;
58768;SDS011;44536;47.474;19.056;2023-05-14T07:59:09;10.57;;;5.97;;
58768;SDS011;44536;47.474;19.056;2023-05-14T08:02:11;8.93;;;6.35;;
58768;SDS011;44536;47.474;19.056;2023-05-14T08:08:17;9.70;;;6.72;;
58768;SDS011;44536;47.474;19.056;2023-05-14T08:11:20;12.07;;;7.00;;
58768;SDS011;44536;47.474;19.056;2023-05-14T08:14:23;9.57;;;6.55;;
58768;SDS011;44536;47.474;19.056;2023-05-14T08:17:26;10.50;;;7.57;;
58768;SDS011;44536;47.474;19.056;2023-05-14T08:20:28;10.98;;;6.62;;
58768;SDS011;44536;47.474;19.056;2023-05-14T08:23:32;10.43;;;6.95;;
58768;SDS011;44536;47.474;19.056;2023-05-14T08:26:34;10.35;;;7.32;;
58768;SDS011;44536;47.474;19.056;2023-05-14T08:29:38;10.10;;;7.03;;
58768;SDS011;44536;47.474;19.056;2023-05-14T08:32:40;12.73;;;8.07;;
58768;SDS011;44536;47.474;19.056;2023-05-14T08:35:43;13.38;;;8.20;;
58768;SDS011;44536;47.474;19.056;2023-05-14T08:38:46;10.35;;;7.35;;
58768;SDS011;44536;47.474;19.056;2023-05-14T08:44:54;13.07;;;9.07;;
58768;SDS011;44536;47.474;19.056;2023-05-14T08:48:02;14.57;;;9.05;;
58768;SDS011;44536;47.474;19.056;2023-05-14T08:51:09;12.52;;;8.77;;
58768;SDS011;44536;47.474;19.056;2023-05-14T08:54:14;11.05;;;8.10;;
58768;SDS011;44536;47.474;19.056;2023-05-14T08:57:17;12.20;;;8.27;;
58768;SDS011;44536;47.474;19.056;2023-05-14T09:00:22;12.75;;;8.35;;
58768;SDS011;44536;47.474;19.056;2023-05-14T09:03:25;11.30;;;7.50;;
58768;SDS011;44536;47.474;19.056;2023-05-14T09:06:28;13.13;;;8.70;;
58768;SDS011;44536;47.474;19.056;2023-05-14T09:09:32;11.12;;;7.30;;
58768;SDS011;44536;47.474;19.056;2023-05-14T09:12:35;10.95;;;7.90;;
58768;SDS011;44536;47.474;19.056;2023-05-14T09:15:37;13.38;;;7.68;;
58768;SDS011;44536;47.474;19.056;2023-05-14T09:18:42;12.15;;;8.05;;
58768;SDS011;44536;47.474;19.056;2023-05-14T09:21:47;12.13;;;7.50;;
58768;SDS011;44536;47.474;19.056;2023-05-14T09:25:01;14.70;;;7.55;;
58768;SDS011;44536;47.474;19.056;2023-05-14T09:28:05;13.82;;;7.35;;
58768;SDS011;44536;47.474;19.056;2023-05-14T09:31:10;12.55;;;7.80;;
58768;SDS011;44536;47.474;19.056;2023-05-14T09:34:19;11.23;;;7.43;;
58768;SDS011;44536;47.474;19.056;2023-05-14T09:37:28;11.27;;;8.35;;
58768;SDS011;44536;47.474;19.056;2023-05-14T09:40:30;11.40;;;7.68;;
58768;SDS011;44536;47.474;19.056;2023-05-14T09:43:33;11.57;;;8.65;;
58768;SDS011;44536;47.474;19.056;2023-05-14T09:46:35;13.15;;;8.18;;
58768;SDS011;44536;47.474;19.056;2023-05-14T09:49:38;13.73;;;8.67;;
58768;SDS011;44536;47.474;19.056;2023-05-14T09:52:40;12.48;;;7.87;;
58768;SDS011;44536;47.474;19.056;2023-05-14T09:55:43;11.20;;;7.50;;
58768;SDS011;44536;47.474;19.056;2023-05-14T09:58:46;14.68;;;11.00;;
58768;SDS011;44536;47.474;19.056;2023-05-14T10:01:49;14.60;;;9.13;;
58768;SDS011;44536;47.474;19.056;2023-05-14T10:04:53;12.05;;;8.43;;
58768;SDS011;44536;47.474;19.056;2023-05-14T10:07:59;13.70;;;9.45;;
58768;SDS011;44536;47.474;19.056;2023-05-14T10:11:07;11.23;;;8.77;;
58768;SDS011;44536;47.474;19.056;2023-05-14T10:14:26;13.93;;;9.63;;
58768;SDS011;44536;47.474;19.056;2023-05-14T10:17:43;11.75;;;8.98;;
58768;SDS011;44536;47.474;19.056;2023-05-14T10:21:05;12.85;;;8.68;;
58768;SDS011;44536;47.474;19.056;2023-05-14T10:24:09;11.65;;;7.87;;
58768;SDS011;44536;47.474;19.056;2023-05-14T10:27:12;16.55;;;10.07;;
58768;SDS011;44536;47.474;19.056;2023-05-14T10:30:15;13.93;;;9.10;;
58768;SDS011;44536;47.474;19.056;2023-05-14T10:33:21;12.30;;;9.52;;
58768;SDS011;44536;47.474;19.056;2023-05-14T10:36:24;13.52;;;8.85;;
58768;SDS011;44536;47.474;19.056;2023-05-14T10:40:10;11.80;;;8.82;;
58768;SDS011;44536;47.474;19.056;2023-05-14T10:43:00;13.18;;;9.45;;
58768;SDS011;44536;47.474;19.056;2023-05-14T10:46:04;13.60;;;9.07;;
58768;SDS011;44536;47.474;19.056;2023-05-14T10:52:10;14.87;;;9.43;;
58768;SDS011;44536;47.474;19.056;2023-05-14T10:55:14;16.75;;;10.02;;
58768;SDS011;44536;47.474;19.056;2023-05-14T10:58:18;13.50;;;8.48;;
58768;SDS011;44536;47.474;19.056;2023-05-14T11:01:22;16.30;;;9.48;;
58768;SDS011;44536;47.474;19.056;2023-05-14T11:04:26;11.98;;;9.82;;
58768;SDS011;44536;47.474;19.056;2023-05-14T11:07:39;12.95;;;7.80;;
58768;SDS011;44536;47.474;19.056;2023-05-14T11:10:45;14.05;;;8.98;;
58768;SDS011;44536;47.474;19.056;2023-05-14T11:13:49;15.20;;;9.15;;
58768;SDS011;44536;47.474;19.056;2023-05-14T11:16:51;12.32;;;8.60;;
58768;SDS011;44536;47.474;19.056;2023-05-14T11:19:54;12.35;;;8.40;;
58768;SDS011;44536;47.474;19.056;2023-05-14T11:22:57;16.35;;;8.80;;
58768;SDS011;44536;47.474;19.056;2023-05-14T11:25:59;10.63;;;8.25;;
58768;SDS011;44536;47.474;19.056;2023-05-14T11:29:03;13.60;;;8.85;;
58768;SDS011;44536;47.474;19.056;2023-05-14T11:32:06;11.95;;;9.43;;
58768;SDS011;44536;47.474;19.056;2023-05-14T11:35:08;13.68;;;9.30;;
58768;SDS011;44536;47.474;19.056;2023-05-14T11:38:18;14.40;;;9.30;;
58768;SDS011;44536;47.474;19.056;2023-05-14T11:41:22;13.13;;;9.20;;
58768;SDS011;44536;47.474;19.056;2023-05-14T11:44:25;12.85;;;9.32;;
58768;SDS011;44536;47.474;19.056;2023-05-14T11:47:28;14.05;;;9.50;;
58768;SDS011;44536;47.474;19.056;2023-05-14T11:50:34;13.68;;;9.57;;
58768;SDS011;44536;47.474;19.056;2023-05-14T11:53:37;11.80;;;7.60;;
58768;SDS011;44536;47.474;19.056;2023-05-14T11:56:40;14.87;;;10.20;;
58768;SDS011;44536;47.474;19.056;2023-05-14T11:59:43;12.45;;;8.95;;
58768;SDS011;44536;47.474;19.056;2023-05-14T12:05:58;14.15;;;9.45;;
58768;SDS011;44536;47.474;19.056;2023-05-14T12:09:03;11.98;;;8.15;;
58768;SDS011;44536;47.474;19.056;2023-05-14T12:12:07;13.50;;;9.93;;
58768;SDS011;44536;47.474;19.056;2023-05-14T12:15:11;13.38;;;8.93;;
58768;SDS011;44536;47.474;19.056;2023-05-14T12:18:16;12.45;;;8.35;;
58768;SDS011;44536;47.474;19.056;2023-05-14T12:21:26;15.80;;;9.10;;
58768;SDS011;44536;47.474;19.056;2023-05-14T12:24:30;11.70;;;8.55;;
58768;SDS011;44536;47.474;19.056;2023-05-14T12:27:35;13.05;;;9.73;;
58768;SDS011;44536;47.474;19.056;2023-05-14T12:30:38;15.48;;;9.90;;
58768;SDS011;44536;47.474;19.056;2023-05-14T12:36:45;12.80;;;9.10;;
58768;SDS011;44536;47.474;19.056;2023-05-14T12:39:47;14.60;;;8.90;;
58768;SDS011;44536;47.474;19.056;2023-05-14T12:42:50;10.17;;;7.73;;
58768;SDS011;44536;47.474;19.056;2023-05-14T12:45:52;13.10;;;9.32;;
58768;SDS011;44536;47.474;19.056;2023-05-14T12:48:55;13.05;;;8.75;;
58768;SDS011;44536;47.474;19.056;2023-05-14T12:51:58;14.15;;;8.98;;
58768;SDS011;44536;47.474;19.056;2023-05-14T12:55:20;15.63;;;9.88;;
58768;SDS011;44536;47.474;19.056;2023-05-14T12:58:23;16.05;;;9.80;;
58768;SDS011;44536;47.474;19.056;2023-05-14T13:01:25;14.35;;;9.15;;
58768;SDS011;44536;47.474;19.056;2023-05-14T13:04:27;17.33;;;10.32;;
58768;SDS011;44536;47.474;19.056;2023-05-14T13:07:30;14.93;;;10.97;;
58768;SDS011;44536;47.474;19.056;2023-05-14T13:10:33;14.73;;;10.52;;
58768;SDS011;44536;47.474;19.056;2023-05-14T13:13:35;14.87;;;10.25;;
58768;SDS011;44536;47.474;19.056;2023-05-14T13:16:38;15.35;;;10.27;;
58768;SDS011;44536;47.474;19.056;2023-05-14T13:19:40;16.00;;;11.15;;
58768;SDS011;44536;47.474;19.056;2023-05-14T13:22:43;14.87;;;9.85;;
58768;SDS011;44536;47.474;19.056;2023-05-14T13:25:45;14.38;;;10.32;;
58768;SDS011;44536;47.474;19.056;2023-05-14T13:28:51;13.73;;;9.30;;
58768;SDS011;44536;47.474;19.056;2023-05-14T13:31:54;16.90;;;10.20;;
58768;SDS011;44536;47.474;19.056;2023-05-14T13:34:56;14.65;;;9.90;;
58768;SDS011;44536;47.474;19.056;2023-05-14T13:37:59;14.25;;;10.48;;
58768;SDS011;44536;47.474;19.056;2023-05-14T13:41:01;14.60;;;10.25;;
58768;SDS011;44536;47.474;19.056;2023-05-14T13:44:04;14.37;;;9.87;;
58768;SDS011;44536;47.474;19.056;2023-05-14T13:47:07;13.75;;;9.57;;
58768;SDS011;44536;47.474;19.056;2023-05-14T13:50:10;13.27;;;10.15;;
58768;SDS011;44536;47.474;19.056;2023-05-14T13:53:12;13.77;;;10.02;;
58768;SDS011;44536;47.474;19.056;2023-05-14T13:56:15;16.30;;;10.13;;
58768;SDS011;44536;47.474;19.056;2023-05-14T13:59:18;17.45;;;10.70;;
58768;SDS011;44536;47.474;19.056;2023-05-14T14:02:21;13.00;;;9.38;;
58768;SDS011;44536;47.474;19.056;2023-05-14T14:05:24;13.00;;;10.20;;
58768;SDS011;44536;47.474;19.056;2023-05-14T14:08:29;13.55;;;10.73;;
58768;SDS011;44536;47.474;19.056;2023-05-14T14:11:32;13.48;;;9.85;;
58768;SDS011;44536;47.474;19.056;2023-05-14T14:14:35;14.38;;;10.45;;
58768;SDS011;44536;47.474;19.056;2023-05-14T14:17:37;15.57;;;10.20;;
58768;SDS011;44536;47.474;19.056;2023-05-14T14:20:42;13.95;;;10.98;;
58768;SDS011;44536;47.474;19.056;2023-05-14T14:23:45;18.60;;;10.75;;
58768;SDS011;44536;47.474;19.056;2023-05-14T14:26:48;15.80;;;10.23;;
58768;SDS011;44536;47.474;19.056;2023-05-14T14:29:50;13.18;;;9.00;;
58768;SDS011;44536;47.474;19.056;2023-05-14T14:32:53;16.60;;;9.98;;
58768;SDS011;44536;47.474;19.056;2023-05-14T14:35:56;14.70;;;9.65;;
58768;SDS011;44536;47.474;19.056;2023-05-14T14:38:59;14.63;;;11.32;;
58768;SDS011;44536;47.474;19.056;2023-05-14T14:42:02;13.88;;;9.00;;
58768;SDS011;44536;47.474;19.056;2023-05-14T14:45:05;10.05;;;6.93;;
58768;SDS011;44536;47.474;19.056;2023-05-14T14:48:30;12.00;;;7.07;;
58768;SDS011;44536;47.474;19.056;2023-05-14T14:51:38;12.63;;;8.65;;
58768;SDS011;44536;47.474;19.056;2023-05-14T14:54:41;11.95;;;6.53;;
58768;SDS011;44536;47.474;19.056;2023-05-14T14:57:44;12.60;;;7.47;;
58768;SDS011;44536;47.474;19.056;2023-05-14T15:00:47;9.20;;;6.10;;
58768;SDS011;44536;47.474;19.056;2023-05-14T15:03:52;10.13;;;5.78;;
58768;SDS011;44536;47.474;19.056;2023-05-14T15:06:55;10.13;;;5.22;;
58768;SDS011;44536;47.474;19.056;2023-05-14T15:09:58;8.75;;;4.87;;
58768;SDS011;44536;47.474;19.056;2023-05-14T15:13:01;9.47;;;5.63;;
58768;SDS011;44536;47.474;19.056;2023-05-14T15:16:04;12.73;;;6.57;;
58768;SDS011;44536;47.474;19.056;2023-05-14T15:19:07;8.37;;;5.00;;
58768;SDS011;44536;47.474;19.056;2023-05-14T15:22:09;9.48;;;5.35;;
58768;SDS011;44536;47.474;19.056;2023-05-14T15:28:15;11.85;;;6.35;;
58768;SDS011;44536;47.474;19.056;2023-05-14T15:31:18;9.87;;;5.93;;
58768;SDS011;44536;47.474;19.056;2023-05-14T15:34:20;9.70;;;6.28;;
58768;SDS011;44536;47.474;19.056;2023-05-14T15:37:24;9.20;;;5.65;;
58768;SDS011;44536;47.474;19.056;2023-05-14T15:40:28;10.32;;;6.82;;
58768;SDS011;44536;47.474;19.056;2023-05-14T15:43:31;8.43;;;5.75;;
58768;SDS011;44536;47.474;19.056;2023-05-14T15:46:33;8.80;;;5.75;;
58768;SDS011;44536;47.474;19.056;2023-05-14T15:49:37;10.63;;;5.65;;
58768;SDS011;44536;47.474;19.056;2023-05-14T15:52:39;9.98;;;6.03;;
58768;SDS011;44536;47.474;19.056;2023-05-14T15:55:42;11.30;;;5.70;;
58768;SDS011;44536;47.474;19.056;2023-05-14T15:58:45;9.40;;;6.23;;
58768;SDS011;44536;47.474;19.056;2023-05-14T16:01:48;12.23;;;7.83;;
58768;SDS011;44536;47.474;19.056;2023-05-14T16:07:53;10.65;;;5.90;;
58768;SDS011;44536;47.474;19.056;2023-05-14T16:10:56;7.95;;;5.60;;
58768;SDS011;44536;47.474;19.056;2023-05-14T16:13:59;9.60;;;5.65;;
58768;SDS011;44536;47.474;19.056;2023-05-14T16:17:01;8.45;;;5.40;;
58768;SDS011;44536;47.474;19.056;2023-05-14T16:20:04;10.50;;;5.57;;
58768;SDS011;44536;47.474;19.056;2023-05-14T16:23:10;8.35;;;5.50;;
58768;SDS011;44536;47.474;19.056;2023-05-14T16:26:13;8.52;;;5.40;;
58768;SDS011;44536;47.474;19.056;2023-05-14T16:29:18;7.55;;;4.50;;
58768;SDS011;44536;47.474;19.056;2023-05-14T16:32:20;9.25;;;5.50;;
58768;SDS011;44536;47.474;19.056;2023-05-14T16:35:24;8.55;;;5.18;;
58768;SDS011;44536;47.474;19.056;2023-05-14T16:38:26;10.52;;;5.37;;
58768;SDS011;44536;47.474;19.056;2023-05-14T16:41:29;8.02;;;4.75;;
58768;SDS011;44536;47.474;19.056;2023-05-14T16:44:31;9.20;;;4.12;;
58768;SDS011;44536;47.474;19.056;2023-05-14T16:47:34;8.03;;;4.43;;
58768;SDS011;44536;47.474;19.056;2023-05-14T16:50:36;11.00;;;6.18;;
58768;SDS011;44536;47.474;19.056;2023-05-14T16:53:39;7.70;;;5.03;;
58768;SDS011;44536;47.474;19.056;2023-05-14T16:56:42;10.65;;;4.97;;
58768;SDS011;44536;47.474;19.056;2023-05-14T16:59:49;7.85;;;4.95;;
58768;SDS011;44536;47.474;19.056;2023-05-14T17:02:51;9.95;;;5.50;;
58768;SDS011;44536;47.474;19.056;2023-05-14T17:08:57;7.45;;;4.43;;
58768;SDS011;44536;47.474;19.056;2023-05-14T17:12:00;8.35;;;4.65;;
58768;SDS011;44536;47.474;19.056;2023-05-14T17:15:03;9.30;;;4.87;;
58768;SDS011;44536;47.474;19.056;2023-05-14T17:18:09;11.25;;;5.47;;
58768;SDS011;44536;47.474;19.056;2023-05-14T17:21:13;8.52;;;4.72;;
58768;SDS011;44536;47.474;19.056;2023-05-14T17:24:16;9.95;;;5.10;;
58768;SDS011;44536;47.474;19.056;2023-05-14T17:27:18;9.63;;;5.93;;
58768;SDS011;44536;47.474;19.056;2023-05-14T17:30:21;8.85;;;5.30;;
58768;SDS011;44536;47.474;19.056;2023-05-14T17:33:23;8.30;;;5.25;;
58768;SDS011;44536;47.474;19.056;2023-05-14T17:36:26;8.30;;;5.27;;
58768;SDS011;44536;47.474;19.056;2023-05-14T17:39:29;10.50;;;6.25;;
58768;SDS011;44536;47.474;19.056;2023-05-14T17:42:32;8.90;;;5.30;;
58768;SDS011;44536;47.474;19.056;2023-05-14T17:45:34;9.65;;;5.70;;
58768;SDS011;44536;47.474;19.056;2023-05-14T17:48:55;10.38;;;6.10;;
58768;SDS011;44536;47.474;19.056;2023-05-14T17:51:59;9.73;;;5.75;;
58768;SDS011;44536;47.474;19.056;2023-05-14T17:55:02;10.80;;;5.87;;
58768;SDS011;44536;47.474;19.056;2023-05-14T17:58:04;9.53;;;6.00;;
58768;SDS011;44536;47.474;19.056;2023-05-14T18:01:07;10.33;;;6.90;;
58768;SDS011;44536;47.474;19.056;2023-05-14T18:04:10;8.97;;;6.37;;
58768;SDS011;44536;47.474;19.056;2023-05-14T18:07:12;10.25;;;6.40;;
58768;SDS011;44536;47.474;19.056;2023-05-14T18:10:15;11.57;;;6.87;;
58768;SDS011;44536;47.474;19.056;2023-05-14T18:13:18;10.50;;;6.30;;
58768;SDS011;44536;47.474;19.056;2023-05-14T18:16:20;10.02;;;6.05;;
58768;SDS011;44536;47.474;19.056;2023-05-14T18:19:23;12.15;;;6.53;;
58768;SDS011;44536;47.474;19.056;2023-05-14T18:22:25;10.10;;;6.97;;
58768;SDS011;44536;47.474;19.056;2023-05-14T18:25:28;10.40;;;7.28;;
58768;SDS011;44536;47.474;19.056;2023-05-14T18:28:31;8.77;;;6.23;;
58768;SDS011;44536;47.474;19.056;2023-05-14T18:31:33;9.95;;;6.70;;
58768;SDS011;44536;47.474;19.056;2023-05-14T18:34:38;12.23;;;6.87;;